Point Lay, AK

1:18 AM AKST on December 06, 2016 (GMT -0900)
Point Lay | | Change Station

Elev 23 ft 69.73 °N, 163.01 °W | Updated 22 minutes ago

Clear
Clear
-14 °F
Feels Like -30 °F
N
7
Wind Variable Wind from East

Today
High -- | Low -- °F
--% Chance of Precip.
Yesterday
High -- | Low -- °F
Precip. -- in
Pressure 30.64 in
Visibility 10.0 miles
Clouds Clear
Windchill -30 °F
Dew Point -21 °F
Humidity 71%
Rainfall 0.00 in
Snow Depth Not available.
1:11 PM 2:15 PM
Waxing Crescent, 40% visible
METAR PPIZ 060956Z AUTO 09006KT 10SM CLR M26/M29 A3063 RMK AO2 SLP375 T12561294 FZRANO TSNO
Pressure 30.64 in
Visibility 10.0 miles
Clouds Clear
Windchill -30 °F
Dew Point -21 °F
Humidity 71%
Rainfall 0.00 in
Snow Depth Not available.
1:11 PM 2:15 PM
Waxing Crescent, 40% visible
METAR PPIZ 060956Z AUTO 09006KT 10SM CLR M26/M29 A3063 RMK AO2 SLP375 T12561294 FZRANO TSNO

10-Day Weather Forecast

Almanac

Astronomy

Dec. 06, 2016 Rise Set
Actual Time
Civil Twilight
Nautical Twilight
Astronomical Twilight
Moon
Length of Visible Light
Length of Day
Tomorrow will be .
, % of the Moon is Illuminated

Today's Extremes

State Highs State Lows

Community

WunderPhotos

Upload Photos

1,955,935 photos uploaded!

WunderBlog® & News

Nearby

Air Quality

  Air Quality AQ Index Pollutant
Not available.

Snow Depth

Station Depth Elevation

Earthquake Activity

City Distance Mag. Time & Date
Minimum magnitude displayed is 2.5.

Coastal Water Temperatures

Place Temperature

Stations

Nearby Weather Stations

Station Location Temp. Windchill Dew Point Humidity Wind Precip. Elev Updated Type
                   

Watches & Warnings

There are currently no watches in effect.